createdAt,value
2023-04-26T00:02:21.203Z,78.29
2023-04-26T00:05:25.002Z,78.40
2023-04-26T00:08:27.091Z,79.73
2023-04-26T00:11:28.991Z,80.21
2023-04-26T00:14:31.568Z,80.35
2023-04-26T00:17:33.835Z,81.53
2023-04-26T00:20:35.819Z,82.09
2023-04-26T00:23:38.022Z,83.19
2023-04-26T00:26:39.957Z,83.64
2023-04-26T00:29:42.249Z,83.58
2023-04-26T00:32:44.439Z,83.73
2023-04-26T00:35:46.289Z,83.76
2023-04-26T00:38:48.573Z,83.70
2023-04-26T00:41:50.420Z,83.56
2023-04-26T00:44:55.348Z,83.49
2023-04-26T00:47:58.237Z,84.32
2023-04-26T00:51:01.497Z,84.78
2023-04-26T00:54:18.840Z,84.87
2023-04-26T00:57:22.007Z,85.15
2023-04-26T01:00:23.897Z,85.85
2023-04-26T01:03:26.906Z,86.36
2023-04-26T01:06:34.917Z,87.35
2023-04-26T01:09:36.971Z,87.84
2023-04-26T01:12:39.624Z,87.44
2023-04-26T01:15:46.754Z,87.27
2023-04-26T01:18:53.083Z,87.26
2023-04-26T01:21:55.521Z,86.95
2023-04-26T01:24:58.420Z,87.50
2023-04-26T01:28:00.394Z,87.88
2023-04-26T01:31:02.287Z,87.70
2023-04-26T01:34:06.429Z,87.88
2023-04-26T01:37:08.387Z,88.21
2023-04-26T01:40:10.635Z,88.36
2023-04-26T01:43:12.709Z,88.16
2023-04-26T01:46:14.674Z,87.74
2023-04-26T01:49:16.717Z,87.16
2023-04-26T01:52:18.638Z,87.10
2023-04-26T01:55:21.059Z,86.85
2023-04-26T01:58:23.213Z,86.56
2023-04-26T02:01:25.693Z,86.42
2023-04-26T02:04:28.519Z,87.07
2023-04-26T02:07:30.876Z,86.87
2023-04-26T02:10:32.797Z,85.87
2023-04-26T02:13:35.064Z,86.28
2023-04-26T02:16:36.963Z,86.00
2023-04-26T02:19:38.923Z,84.05
2023-04-26T02:22:40.870Z,83.40
2023-04-26T02:25:45.963Z,82.62
2023-04-26T02:28:47.847Z,83.20
2023-04-26T02:31:49.911Z,84.89
2023-04-26T02:34:52.160Z,85.62
2023-04-26T02:37:55.162Z,85.65
2023-04-26T02:41:04.131Z,86.46
2023-04-26T02:44:07.698Z,86.85
2023-04-26T02:47:09.939Z,86.65
2023-04-26T02:50:12.382Z,87.32
2023-04-26T02:53:14.569Z,86.79
2023-04-26T02:56:16.870Z,86.88
2023-04-26T02:59:18.907Z,86.91
2023-04-26T03:02:21.647Z,86.73
2023-04-26T03:05:23.773Z,86.19
2023-04-26T03:08:25.997Z,86.23
2023-04-26T03:11:28.072Z,85.80
2023-04-26T03:14:30.046Z,85.29
2023-04-26T03:17:32.313Z,85.17
2023-04-26T03:20:34.414Z,84.16
2023-04-26T03:23:36.850Z,83.03
2023-04-26T03:26:38.794Z,82.38
2023-04-26T03:29:42.835Z,82.38
2023-04-26T03:32:46.321Z,83.29
2023-04-26T03:35:48.415Z,81.74
2023-04-26T03:38:50.559Z,80.67
2023-04-26T03:41:54.083Z,79.89
2023-04-26T03:44:56.399Z,80.61
2023-04-26T03:47:58.411Z,81.97
2023-04-26T03:51:02.304Z,80.69
2023-04-26T03:54:04.900Z,80.71
2023-04-26T03:57:06.769Z,79.61
2023-04-26T04:00:13.825Z,79.73
2023-04-26T04:03:18.697Z,79.15
2023-04-26T04:06:21.868Z,78.60
2023-04-26T04:09:25.260Z,76.54
2023-04-26T04:12:27.543Z,76.11
2023-04-26T04:15:29.610Z,76.26
2023-04-26T04:18:31.567Z,75.81
2023-04-26T04:21:34.659Z,75.80
2023-04-26T04:24:37.422Z,75.76
2023-04-26T04:27:39.591Z,77.79
2023-04-26T04:30:43.675Z,78.80
2023-04-26T04:33:45.592Z,76.79
2023-04-26T04:36:48.266Z,76.08
2023-04-26T04:39:50.344Z,76.35
2023-04-26T04:42:53.442Z,74.55
2023-04-26T04:45:56.597Z,73.76
2023-04-26T04:48:58.583Z,74.73
2023-04-26T04:52:01.033Z,74.45
2023-04-26T04:55:04.382Z,73.83
2023-04-26T04:58:06.881Z,73.48
2023-04-26T05:01:12.911Z,73.65
2023-04-26T05:04:34.659Z,73.89
2023-04-26T05:07:37.590Z,74.46
2023-04-26T05:10:39.677Z,73.82
2023-04-26T05:13:42.149Z,76.21
2023-04-26T05:16:44.313Z,74.58
2023-04-26T05:19:47.375Z,72.80
2023-04-26T05:22:49.371Z,72.73
2023-04-26T05:25:51.966Z,72.07
2023-04-26T05:29:12.435Z,72.43
2023-04-26T05:32:34.622Z,71.11
2023-04-26T05:35:59.952Z,72.22
2023-04-26T05:39:01.794Z,71.27
2023-04-26T05:42:04.055Z,70.58
2023-04-26T05:45:07.722Z,71.55
2023-04-26T05:48:09.652Z,68.43
2023-04-26T05:51:11.963Z,70.99
2023-04-26T05:54:14.294Z,69.96
2023-04-26T05:57:16.242Z,71.79
2023-04-26T06:00:20.847Z,69.68
2023-04-26T06:03:24.955Z,69.69
2023-04-26T06:06:28.462Z,70.89
2023-04-26T06:09:34.324Z,69.46
2023-04-26T06:12:36.251Z,68.61
2023-04-26T06:15:38.453Z,70.24
2023-04-26T06:18:40.794Z,69.11
2023-04-26T06:21:42.862Z,72.30
2023-04-26T06:24:44.819Z,67.02
2023-04-26T06:27:46.796Z,68.58
2023-04-26T06:30:48.829Z,68.04
2023-04-26T06:33:51.444Z,71.21
2023-04-26T06:36:53.763Z,66.51
2023-04-26T06:39:57.973Z,64.92
2023-04-26T06:43:00.684Z,64.80
2023-04-26T06:46:20.842Z,66.74
2023-04-26T06:49:28.569Z,64.52
2023-04-26T06:52:31.091Z,63.43
2023-04-26T06:55:33.764Z,65.13
2023-04-26T06:58:36.572Z,66.81
2023-04-26T07:01:38.980Z,61.91
2023-04-26T07:04:41.449Z,65.42
2023-04-26T07:07:43.688Z,64.79
2023-04-26T07:10:46.161Z,66.46
2023-04-26T07:13:48.160Z,66.27
2023-04-26T07:16:50.084Z,64.27
2023-04-26T07:19:52.503Z,66.59
2023-04-26T07:22:54.767Z,66.19
2023-04-26T07:25:57.772Z,65.26
2023-04-26T07:29:00.973Z,63.50
2023-04-26T07:32:03.866Z,61.73
2023-04-26T07:35:15.858Z,62.72
2023-04-26T07:38:19.658Z,61.95
2023-04-26T07:41:21.637Z,62.50
2023-04-26T07:44:23.513Z,62.58
2023-04-26T07:47:25.443Z,60.20
2023-04-26T07:50:28.625Z,60.00
2023-04-26T07:53:30.703Z,59.14
2023-04-26T07:56:32.709Z,59.80
2023-04-26T07:59:34.730Z,58.21
2023-04-26T08:02:44.613Z,57.35
2023-04-26T08:05:47.826Z,54.37
2023-04-26T08:08:51.013Z,54.96
2023-04-26T08:11:53.047Z,54.46
2023-04-26T08:14:55.076Z,55.84
2023-04-26T08:17:57.446Z,52.61
2023-04-26T08:20:59.888Z,55.38
2023-04-26T08:24:01.791Z,54.45
2023-04-26T08:27:03.759Z,51.72
2023-04-26T08:30:06.563Z,53.91
2023-04-26T08:33:10.328Z,49.97
2023-04-26T08:36:12.835Z,52.25
2023-04-26T08:39:14.837Z,50.35
2023-04-26T08:42:17.842Z,48.64
2023-04-26T08:45:24.744Z,51.68
2023-04-26T08:48:30.702Z,49.43
2023-04-26T08:51:33.908Z,53.79
2023-04-26T08:54:37.362Z,47.23
2023-04-26T08:57:40.912Z,49.33
2023-04-26T09:00:46.797Z,50.87
2023-04-26T09:03:48.917Z,51.58
2023-04-26T09:06:53.447Z,51.82
2023-04-26T09:09:58.261Z,51.00
2023-04-26T09:13:00.368Z,49.56
2023-04-26T09:16:04.817Z,49.01
2023-04-26T09:19:10.960Z,47.79
2023-04-26T09:22:13.189Z,45.61
2023-04-26T09:25:17.540Z,48.89
2023-04-26T09:28:22.569Z,47.11
2023-04-26T09:31:42.747Z,46.86
2023-04-26T09:34:47.005Z,47.26
2023-04-26T09:38:11.801Z,47.21
2023-04-26T09:41:14.775Z,49.65
2023-04-26T09:44:25.548Z,47.10
2023-04-26T09:47:27.387Z,48.54
2023-04-26T09:50:30.662Z,45.00
2023-04-26T09:53:38.837Z,45.15
2023-04-26T09:56:41.059Z,44.70
2023-04-26T09:59:48.126Z,46.50
2023-04-26T10:02:50.669Z,45.16
2023-04-26T10:05:56.637Z,46.28
2023-04-26T10:08:58.933Z,45.67
2023-04-26T10:12:01.720Z,41.51
2023-04-26T10:15:04.308Z,46.68
2023-04-26T10:18:07.026Z,44.80
2023-04-26T10:21:19.674Z,46.89
2023-04-26T10:24:24.296Z,45.47
2023-04-26T10:27:44.520Z,45.59
2023-04-26T10:30:57.786Z,43.98
2023-04-26T10:34:19.836Z,44.31
2023-04-26T10:37:21.942Z,42.56
2023-04-26T10:40:36.403Z,41.70
2023-04-26T10:51:27.987Z,43.71
2023-04-26T10:54:46.320Z,43.47
2023-04-26T10:57:50.726Z,42.63
2023-04-26T11:01:11.833Z,43.93
2023-04-26T11:04:14.105Z,41.63
2023-04-26T11:07:16.222Z,41.89
2023-04-26T11:10:27.479Z,40.65
2023-04-26T11:13:33.079Z,39.46
2023-04-26T11:16:35.157Z,40.92
2023-04-26T11:19:37.404Z,42.21
2023-04-26T11:22:41.883Z,41.22
2023-04-26T11:25:44.496Z,40.31
2023-04-26T11:28:46.576Z,40.62
2023-04-26T11:31:56.408Z,39.85
2023-04-26T11:35:01.075Z,39.00
2023-04-26T11:38:07.953Z,42.52
2023-04-26T11:41:10.987Z,44.94
2023-04-26T11:44:13.057Z,44.01
2023-04-26T11:47:15.429Z,39.71
2023-04-26T11:50:17.987Z,40.85
2023-04-26T11:53:20.006Z,41.85
2023-04-26T11:56:23.059Z,41.84
2023-04-26T11:59:26.356Z,43.02
2023-04-26T12:02:30.474Z,40.64
2023-04-26T12:05:32.816Z,42.84
2023-04-26T12:08:34.951Z,40.88
2023-04-26T12:11:37.079Z,41.21
2023-04-26T12:14:40.553Z,41.02
2023-04-26T12:18:01.739Z,39.71
2023-04-26T12:21:03.927Z,38.41
2023-04-26T12:24:06.405Z,38.81
2023-04-26T12:27:08.451Z,39.59
2023-04-26T12:30:10.778Z,40.73
2023-04-26T12:33:17.733Z,40.28
2023-04-26T12:36:19.914Z,41.79
2023-04-26T12:39:22.075Z,39.90
2023-04-26T12:42:24.054Z,41.26
2023-04-26T12:45:27.159Z,38.73
2023-04-26T12:48:29.159Z,40.76
2023-04-26T12:51:33.884Z,40.88
2023-04-26T12:54:35.735Z,39.09
2023-04-26T12:57:39.332Z,39.82
2023-04-26T13:00:43.983Z,40.14
2023-04-26T13:03:53.062Z,39.02
2023-04-26T13:06:55.303Z,40.29
2023-04-26T13:10:00.521Z,40.31
2023-04-26T13:13:32.264Z,37.71
2023-04-26T13:16:44.976Z,38.35
2023-04-26T13:19:46.863Z,40.69
2023-04-26T13:22:49.278Z,39.35
2023-04-26T13:25:51.326Z,38.67
2023-04-26T13:28:53.275Z,38.96
2023-04-26T13:31:56.075Z,41.58
2023-04-26T13:34:58.087Z,41.20
2023-04-26T13:38:00.085Z,41.86
2023-04-26T13:41:02.868Z,42.60
2023-04-26T13:44:05.241Z,44.88
2023-04-26T13:47:07.549Z,43.42
2023-04-26T13:50:09.980Z,44.24
2023-04-26T13:53:12.429Z,43.81
2023-04-26T13:56:14.359Z,47.82
2023-04-26T13:59:16.307Z,45.94
2023-04-26T14:02:18.782Z,46.04
2023-04-26T14:05:21.770Z,47.19
2023-04-26T14:08:24.646Z,48.12
2023-04-26T14:11:27.329Z,48.12
2023-04-26T14:14:29.157Z,47.29
2023-04-26T14:17:51.237Z,47.41
2023-04-26T14:21:13.118Z,48.03
2023-04-26T14:24:34.912Z,46.66
2023-04-26T14:27:56.743Z,47.52
2023-04-26T14:31:19.748Z,47.76
2023-04-26T14:34:42.031Z,47.40
2023-04-26T14:37:43.851Z,48.62
2023-04-26T14:40:46.392Z,46.61
2023-04-26T14:43:48.942Z,46.22
2023-04-26T14:46:51.202Z,46.37
2023-04-26T14:49:53.255Z,47.52
2023-04-26T14:52:56.280Z,49.08
2023-04-26T14:55:58.864Z,48.25
2023-04-26T14:59:01.705Z,48.43
2023-04-26T15:02:05.080Z,48.79
2023-04-26T15:05:07.843Z,48.22
2023-04-26T15:08:22.428Z,47.92
2023-04-26T15:11:24.637Z,46.37
2023-04-26T15:14:26.904Z,46.28
2023-04-26T15:17:32.002Z,47.37
2023-04-26T15:20:34.274Z,49.18
2023-04-26T15:23:36.407Z,47.19
2023-04-26T15:26:38.352Z,48.77
2023-04-26T15:29:40.428Z,50.06
2023-04-26T15:32:42.655Z,52.25
2023-04-26T15:35:44.556Z,51.12
2023-04-26T15:38:48.436Z,47.71
2023-04-26T15:41:50.422Z,49.45
2023-04-26T15:44:52.373Z,49.55
2023-04-26T15:47:55.237Z,48.09
2023-04-26T15:50:58.000Z,49.70
2023-04-26T15:54:00.164Z,50.69
2023-04-26T15:57:04.013Z,48.85
2023-04-26T16:00:08.857Z,48.61
2023-04-26T16:03:11.428Z,47.82
2023-04-26T16:06:13.441Z,50.70
2023-04-26T16:09:25.233Z,49.07
2023-04-26T16:12:27.806Z,47.78
2023-04-26T16:15:29.718Z,49.91
2023-04-26T16:18:31.876Z,48.72
2023-04-26T16:21:34.127Z,47.50
2023-04-26T16:24:38.291Z,48.29
2023-04-26T16:27:40.373Z,47.97
2023-04-26T16:30:43.074Z,49.90
2023-04-26T16:33:45.308Z,50.83
2023-04-26T16:36:47.166Z,49.32
2023-04-26T16:39:49.419Z,49.36
2023-04-26T16:42:51.291Z,49.69
2023-04-26T16:46:03.512Z,50.35
2023-04-26T16:49:09.653Z,50.56
2023-04-26T16:52:11.778Z,52.74
2023-04-26T16:55:14.000Z,52.75
2023-04-26T16:58:16.258Z,54.90
2023-04-26T17:01:18.211Z,56.70
2023-04-26T17:04:20.405Z,56.24
2023-04-26T17:07:22.621Z,56.70
2023-04-26T17:10:26.218Z,55.73
2023-04-26T17:13:33.343Z,53.52
2023-04-26T17:16:35.464Z,56.66
2023-04-26T17:19:37.360Z,58.42
2023-04-26T17:22:40.753Z,61.27
2023-04-26T17:25:42.699Z,63.91
2023-04-26T17:28:44.709Z,63.74
2023-04-26T17:31:47.024Z,65.95
2023-04-26T17:34:49.063Z,66.85
2023-04-26T17:37:51.036Z,68.31
2023-04-26T17:40:54.109Z,67.90
2023-04-26T17:43:56.744Z,67.79
2023-04-26T17:46:58.669Z,67.10
2023-04-26T17:50:01.079Z,69.38
2023-04-26T17:53:04.654Z,69.72
2023-04-26T17:56:10.000Z,65.72
2023-04-26T17:59:12.698Z,69.82
2023-04-26T18:02:14.763Z,69.09
2023-04-26T18:05:17.470Z,72.80
2023-04-26T18:08:20.594Z,70.53
2023-04-26T18:11:22.887Z,70.51
2023-04-26T18:14:25.674Z,67.04
2023-04-26T18:17:27.673Z,62.57
2023-04-26T18:20:31.102Z,63.07
2023-04-26T18:23:33.475Z,63.18
2023-04-26T18:26:39.230Z,63.26
2023-04-26T18:29:54.462Z,64.95
2023-04-26T18:32:56.656Z,61.36
2023-04-26T18:35:58.596Z,64.91
2023-04-26T18:39:01.268Z,64.58
2023-04-26T18:42:03.885Z,64.55
2023-04-26T18:45:07.074Z,64.89
2023-04-26T18:48:10.202Z,66.70
2023-04-26T18:51:12.392Z,68.09
2023-04-26T18:54:15.032Z,69.85
2023-04-26T18:57:22.087Z,66.63
2023-04-26T19:00:24.475Z,63.22
2023-04-26T19:03:28.828Z,66.62
2023-04-26T19:06:31.530Z,65.49
2023-04-26T19:09:46.564Z,70.08
2023-04-26T19:12:52.940Z,67.12
2023-04-26T19:15:55.237Z,66.73
2023-04-26T19:18:58.156Z,69.85
2023-04-26T19:22:01.126Z,69.03
2023-04-26T19:25:05.139Z,68.20
2023-04-26T19:28:07.062Z,68.53
2023-04-26T19:31:08.972Z,67.27
2023-04-26T19:34:12.801Z,67.46
2023-04-26T19:37:15.143Z,68.72
2023-04-26T19:40:17.524Z,68.04
2023-04-26T19:43:20.543Z,67.45
2023-04-26T19:46:22.764Z,68.52
2023-04-26T19:49:26.216Z,69.69
2023-04-26T19:52:30.350Z,65.53
2023-04-26T19:55:32.681Z,62.66
2023-04-26T19:58:34.918Z,60.91
2023-04-26T20:01:37.064Z,62.51
2023-04-26T20:04:39.036Z,61.73
2023-04-26T20:07:41.360Z,60.87
2023-04-26T20:10:45.041Z,60.07
2023-04-26T20:13:47.172Z,59.20
2023-04-26T20:16:49.294Z,58.67
2023-04-26T20:19:51.703Z,56.80
2023-04-26T20:22:55.171Z,56.08
2023-04-26T20:25:57.425Z,55.59
2023-04-26T20:29:00.462Z,55.36
2023-04-26T20:32:03.032Z,56.12
2023-04-26T20:35:06.286Z,57.68
2023-04-26T20:38:08.310Z,58.75
2023-04-26T20:41:10.429Z,57.52
2023-04-26T20:44:12.607Z,57.11
2023-04-26T20:47:14.547Z,58.67
2023-04-26T20:50:17.335Z,59.03
2023-04-26T20:53:47.851Z,57.44
2023-04-26T20:56:50.000Z,57.22
2023-04-26T20:59:51.892Z,57.50
2023-04-26T21:02:53.981Z,54.97
2023-04-26T21:05:55.984Z,55.49
2023-04-26T21:08:57.845Z,55.82
2023-04-26T21:11:59.832Z,55.42
2023-04-26T21:15:01.778Z,55.68
2023-04-26T21:18:03.897Z,56.54
2023-04-26T21:21:05.927Z,56.42
2023-04-26T21:24:08.035Z,56.86
2023-04-26T21:27:09.883Z,56.06
2023-04-26T21:30:12.604Z,57.67
2023-04-26T21:33:16.046Z,57.88
2023-04-26T21:36:18.148Z,56.29
2023-04-26T21:39:20.021Z,55.75
2023-04-26T21:42:21.863Z,58.66
2023-04-26T21:45:24.857Z,57.92
2023-04-26T21:48:26.999Z,55.82
2023-04-26T21:51:29.095Z,57.15
2023-04-26T21:54:31.034Z,56.88
2023-04-26T21:57:32.945Z,57.36
2023-04-26T22:00:35.119Z,58.69
2023-04-26T22:03:37.675Z,58.63
2023-04-26T22:06:39.702Z,58.81
2023-04-26T22:09:41.657Z,58.49
2023-04-26T22:12:43.778Z,58.64
2023-04-26T22:15:45.713Z,58.32
2023-04-26T22:18:47.592Z,58.12
2023-04-26T22:21:49.933Z,58.47
2023-04-26T22:24:51.946Z,59.01
2023-04-26T22:27:53.883Z,60.05
2023-04-26T22:30:55.842Z,58.29
2023-04-26T22:33:58.039Z,58.02
2023-04-26T22:37:13.023Z,58.09
2023-04-26T22:40:21.812Z,56.53
2023-04-26T22:43:23.820Z,57.65
2023-04-26T22:46:25.782Z,57.22
2023-04-26T22:49:27.637Z,57.34
2023-04-26T22:52:31.786Z,57.82
2023-04-26T22:55:34.254Z,56.83
2023-04-26T22:58:36.161Z,57.62
2023-04-26T23:01:38.620Z,57.66
2023-04-26T23:04:41.940Z,59.34
2023-04-26T23:07:44.182Z,59.50
2023-04-26T23:10:46.270Z,59.16
2023-04-26T23:13:52.947Z,59.69
2023-04-26T23:16:54.860Z,59.93
2023-04-26T23:19:56.779Z,60.94
2023-04-26T23:22:58.699Z,59.91
2023-04-26T23:26:00.861Z,59.90
2023-04-26T23:29:03.039Z,60.75
2023-04-26T23:32:05.046Z,60.71
2023-04-26T23:35:07.733Z,60.73
2023-04-26T23:38:09.705Z,62.65
2023-04-26T23:41:11.643Z,61.24
2023-04-26T23:44:16.834Z,61.40
2023-04-26T23:47:18.979Z,60.42
2023-04-26T23:50:20.908Z,61.22
2023-04-26T23:53:22.909Z,60.98
2023-04-26T23:56:24.987Z,60.59
2023-04-26T23:59:27.041Z,61.29
